Korsika — LZG2359 — position and weather

sailwx.info

Track history (hours):
 
Tides and Currents Weather Stations Pressure Air Temp Water Temp Dewpoint Dewpoint Depression Visibility Wind Speed Wind Dir Waves Ship Positions

Korsika

Last reported at 2018-Feb-03 18:30 UTC. Time now 2018-Feb-18 22:23 UTC.
Position N 48°12' E 014°60'.
Warning: this ship's position is 15 days out of date.

Length 80 m; draft 2 m.

Type: Ship. MMSI: 207072359.

Date/timePositionNaut miles runAvg speedWind from/ knotsBaromVisibWave heightAir tempDewpointWater temp
2018-Feb-03 18:30N 48°12' E 014°60'3 6.2
2018-Feb-03 18:01N 48°12' E 015°04'0 0.2
2018-Feb-03 17:30N 48°11' E 015°04'1 2.2
2018-Feb-03 17:00N 48°11' E 015°05'3 3.2
2018-Feb-03 16:00N 48°13' E 015°09'3 5.5
2018-Feb-03 15:30N 48°13' E 015°13'3 6.1
2018-Feb-03 15:00N 48°14' E 015°18'1 1.7
2018-Feb-03 14:22N 48°14' E 015°19'44 3.1
2018-Feb-03 00:21N 48°13' E 016°25'3 5.5
2018-Feb-02 23:50N 48°11' E 016°28'1 1.2
2018-Feb-02 22:51N 48°10' E 016°29'11 2.6
2018-Feb-02 18:24N 48°08' E 016°45'1 2.5
2018-Feb-02 17:54N 48°07' E 016°47'2 2.6
2018-Feb-02 17:16N 48°07' E 016°50'1 2.6
2018-Feb-02 17:00N 48°07' E 016°51'1 2.7
2018-Feb-02 16:30N 48°08' E 016°53'3 2.5
2018-Feb-02 15:30N 48°09' E 016°56'2 2.3
2018-Feb-02 14:30N 48°10' E 016°59'1 2.7
2018-Feb-02 14:00N 48°09' E 017°00'1 2.8
2018-Feb-02 13:30N 48°08' E 017°02'2 3.0
2018-Feb-02 13:00N 48°09' E 017°04'1 2.9
2018-Feb-02 12:30N 48°08' E 017°06'2 3.3
2018-Feb-02 12:01N 48°08' E 017°08'2 3.3
2018-Feb-02 11:30N 48°06' E 017°08'2 4.8
2018-Feb-02 11:00N 48°04' E 017°10'3 5.3
2018-Feb-02 10:30N 48°03' E 017°13'3 5.9
2018-Feb-02 10:00N 48°01' E 017°16'3 6.5
2018-Feb-02 09:31N 47°60' E 017°21'3 6.5
2018-Feb-02 09:00N 47°58' E 017°25'3 6.4
2018-Feb-02 08:30N 47°56' E 017°28'3 6.7
2018-Feb-02 08:00N 47°53' E 017°32'0 1.0
2018-Feb-02 07:30N 47°53' E 017°32'2 3.9
2018-Feb-02 07:00N 47°51' E 017°34'3 5.7
2018-Feb-02 06:30N 47°49' E 017°37'2 4.2
2018-Feb-02 05:59N 47°48' E 017°39'2 4.0
2018-Feb-02 05:30N 47°46' E 017°41'57 3.6
2018-Feb-01 13:26N 47°35' E 019°04'2 5.2
2018-Feb-01 13:01N 47°33' E 019°04'2 4.9
2018-Feb-01 12:30N 47°30' E 019°03'2 4.7
2018-Feb-01 12:00N 47°28' E 019°04'4 4.2
2018-Feb-01 10:58N 47°24' E 019°02'2 4.6
2018-Feb-01 10:30N 47°23' E 018°60'3 4.9
2018-Feb-01 09:59N 47°21' E 018°57'2 4.6
2018-Feb-01 09:30N 47°19' E 018°56'3 4.7
2018-Feb-01 08:56N 47°17' E 018°55'81 3.8
2018-Jan-31 11:33N 45°56' E 018°47'2 5.5
2018-Jan-31 11:10N 45°54' E 018°49'1 5.2
2018-Jan-31 10:56N 45°53' E 018°50'2 4.8
2018-Jan-31 10:29N 45°51' E 018°51'1 1.0
2018-Jan-31 10:00N 45°51' E 018°52'0 0.0
2018-Jan-31 09:30N 45°51' E 018°52'1 2.6
2018-Jan-31 09:00N 45°50' E 018°51'3 5.0
2018-Jan-31 08:31N 45°47' E 018°52'2 4.8
2018-Jan-31 08:00N 45°45' E 018°54'3 5.5
2018-Jan-31 07:30N 45°42' E 018°54'3 5.4
2018-Jan-31 07:01N 45°41' E 018°57'2 4.2
2018-Jan-31 06:31N 45°39' E 018°56'2 4.9
2018-Jan-31 06:00N 45°37' E 018°54'2 4.6
2018-Jan-31 05:30N 45°34' E 018°53'2 4.8
2018-Jan-31 05:00N 45°33' E 018°56'2 4.7
2018-Jan-31 04:31N 45°32' E 018°59'2 3.9
2018-Jan-31 04:01N 45°33' E 019°02'2 4.8
2018-Jan-31 03:31N 45°32' E 019°05'2 4.4
2018-Jan-31 03:00N 45°30' E 019°06'3 5.1
2018-Jan-31 02:31N 45°29' E 019°02'2 3.8
2018-Jan-31 02:01N 45°29' E 018°59'3 5.0
2018-Jan-31 01:31N 45°26' E 018°60'2 4.6
2018-Jan-31 01:00N 45°25' E 019°02'3 3.4
2018-Jan-31 00:00N 45°22' E 019°00'2 5.0
2018-Jan-30 23:31N 45°21' E 019°03'2 4.6
2018-Jan-30 23:01N 45°19' E 019°06'2 4.5
2018-Jan-30 22:30N 45°17' E 019°07'5 5.1
2018-Jan-30 21:30N 45°15' E 019°14'2 4.8
2018-Jan-30 21:00N 45°14' E 019°17'3 5.2
2018-Jan-30 20:30N 45°14' E 019°21'2 4.9
2018-Jan-30 20:01N 45°14' E 019°24'6 4.8
2018-Jan-30 18:42N 45°15' E 019°33'2 5.2
2018-Jan-30 18:24N 45°13' E 019°34'3 4.3
2018-Jan-30 17:42N 45°13' E 019°38'1 5.2
2018-Jan-30 17:26N 45°13' E 019°40'2 5.0
2018-Jan-30 17:00N 45°14' E 019°43'5 5.4
2018-Jan-30 16:04N 45°14' E 019°50'0 2.1
2018-Jan-30 15:59N 45°14' E 019°51'2 2.9
2018-Jan-30 15:15N 45°16' E 019°52'1 0.7
2018-Jan-30 14:32N 45°16' E 019°51'0 0.1
2018-Jan-30 14:29N 45°16' E 019°51'0 0.0
2018-Jan-30 13:30N 45°16' E 019°51'0 0.2
2018-Jan-30 12:57N 45°16' E 019°51'0 0.0
2018-Jan-30 12:30N 45°16' E 019°51'0 0.0
2018-Jan-30 11:54N 45°16' E 019°51'0 0.0
2018-Jan-30 11:24N 45°16' E 019°51'1 0.8
2018-Jan-30 10:29N 45°16' E 019°51'0 0.0
2018-Jan-30 09:30N 45°16' E 019°51'0 0.0
2018-Jan-30 08:55N 45°16' E 019°51'0 0.0
2018-Jan-30 08:19N 45°16' E 019°51'0 0.0
2018-Jan-30 07:30N 45°16' E 019°51'0 0.0
2018-Jan-30 07:00N 45°16' E 019°51'3 3.6
2018-Jan-30 06:18N 45°15' E 019°55'2 5.2
2018-Jan-30 06:00N 45°13' E 019°56'3 5.2
2018-Jan-30 05:30N 45°11' E 019°58'3 5.1
2018-Jan-30 05:01N 45°10' E 020°01'3 4.8
2018-Jan-30 04:29N 45°10' E 020°05'2 4.9
2018-Jan-30 04:00N 45°10' E 020°08'2 5.0
2018-Jan-30 03:30N 45°11' E 020°12'3 5.0
2018-Jan-30 03:00N 45°09' E 020°15'3 5.1
2018-Jan-30 02:30N 45°07' E 020°17'3 5.3
2018-Jan-30 02:00N 45°05' E 020°19'3 5.2
2018-Jan-30 01:30N 45°03' E 020°21'3 5.2
2018-Jan-30 01:00N 45°01' E 020°22'3 5.0
2018-Jan-30 00:30N 44°60' E 020°18'3 5.2
2018-Jan-30 00:00N 44°57' E 020°18'3 5.1
2018-Jan-29 23:30N 44°55' E 020°20'3 5.4
2018-Jan-29 23:00N 44°53' E 020°22'2 5.0
2018-Jan-29 22:31N 44°51' E 020°25'3 5.7
2018-Jan-29 22:00N 44°50' E 020°28'3 5.4
2018-Jan-29 21:30N 44°50' E 020°32'3 5.6
2018-Jan-29 21:00N 44°51' E 020°35'2 4.9
2018-Jan-29 20:30N 44°50' E 020°39'3 5.3
2018-Jan-29 20:00N 44°47' E 020°38'3 5.4
2018-Jan-29 19:30N 44°45' E 020°39'3 5.5
2018-Jan-29 19:00N 44°43' E 020°41'3 5.5
2018-Jan-29 18:30N 44°41' E 020°44'3 5.5
2018-Jan-29 18:00N 44°39' E 020°47'3 5.4
2018-Jan-29 17:30N 44°40' E 020°51'3 5.7
2018-Jan-29 17:00N 44°40' E 020°55'3 5.7
2018-Jan-29 16:30N 44°42' E 020°58'3 5.4
2018-Jan-29 16:00N 44°43' E 021°02'3 5.6
2018-Jan-29 15:30N 44°43' E 021°06'3 5.7
2018-Jan-29 15:00N 44°45' E 021°09'3 5.4
2018-Jan-29 14:30N 44°46' E 021°12'8 4.7
2018-Jan-29 12:43N 44°47' E 021°24'1 5.7
2018-Jan-29 12:28N 44°46' E 021°26'3 5.6
2018-Jan-29 12:00N 44°46' E 021°30'1 1.6
2018-Jan-29 11:20N 44°46' E 021°31'0 0.0
2018-Jan-29 09:37N 44°46' E 021°31'0 0.2
2018-Jan-29 09:30N 44°46' E 021°31'2 4.3
2018-Jan-29 09:01N 44°46' E 021°34'3 5.5
2018-Jan-29 08:31N 44°44' E 021°37'3 5.2
2018-Jan-29 08:01N 44°42' E 021°39'3 5.6
2018-Jan-29 07:31N 44°40' E 021°42'13 5.3
2018-Jan-29 05:02N 44°38' E 021°60'0 5.9
2018-Jan-29 04:59N 44°37' E 022°00'3 5.5
2018-Jan-29 04:31N 44°35' E 022°02'3 5.8
2018-Jan-29 04:00N 44°32' E 022°03'3 5.8
2018-Jan-29 03:30N 44°30' E 022°05'3 6.1
2018-Jan-29 03:00N 44°28' E 022°09'3 5.5
2018-Jan-29 02:30N 44°30' E 022°12'  
Track history (hours):
 
Tides and Currents Weather Stations Pressure Air Temp Water Temp Dewpoint Dewpoint Depression Visibility Wind Speed Wind Dir Waves Ship Positions

Korsika

Last reported at 2018-Feb-03 18:30 UTC. Time now 2018-Feb-18 22:23 UTC.
Position N 48°12' E 014°60'.
Warning: this ship's position is 15 days out of date.

Length 80 m; draft 2 m.

Type: Ship. MMSI: 207072359.

Date/timePositionNaut miles runAvg speedWind from/ knotsBaromVisibWave heightAir tempDewpointWater temp
2018-Feb-03 18:30N 48°12' E 014°60'3 6.2
2018-Feb-03 18:01N 48°12' E 015°04'0 0.2
2018-Feb-03 17:30N 48°11' E 015°04'1 2.2
2018-Feb-03 17:00N 48°11' E 015°05'3 3.2
2018-Feb-03 16:00N 48°13' E 015°09'3 5.5
2018-Feb-03 15:30N 48°13' E 015°13'3 6.1
2018-Feb-03 15:00N 48°14' E 015°18'1 1.7
2018-Feb-03 14:22N 48°14' E 015°19'44 3.1
2018-Feb-03 00:21N 48°13' E 016°25'3 5.5
2018-Feb-02 23:50N 48°11' E 016°28'1 1.2
2018-Feb-02 22:51N 48°10' E 016°29'11 2.6
2018-Feb-02 18:24N 48°08' E 016°45'1 2.5
2018-Feb-02 17:54N 48°07' E 016°47'2 2.6
2018-Feb-02 17:16N 48°07' E 016°50'1 2.6
2018-Feb-02 17:00N 48°07' E 016°51'1 2.7
2018-Feb-02 16:30N 48°08' E 016°53'3 2.5
2018-Feb-02 15:30N 48°09' E 016°56'2 2.3
2018-Feb-02 14:30N 48°10' E 016°59'1 2.7
2018-Feb-02 14:00N 48°09' E 017°00'1 2.8
2018-Feb-02 13:30N 48°08' E 017°02'2 3.0
2018-Feb-02 13:00N 48°09' E 017°04'1 2.9
2018-Feb-02 12:30N 48°08' E 017°06'2 3.3
2018-Feb-02 12:01N 48°08' E 017°08'2 3.3
2018-Feb-02 11:30N 48°06' E 017°08'2 4.8
2018-Feb-02 11:00N 48°04' E 017°10'3 5.3
2018-Feb-02 10:30N 48°03' E 017°13'3 5.9
2018-Feb-02 10:00N 48°01' E 017°16'3 6.5
2018-Feb-02 09:31N 47°60' E 017°21'3 6.5
2018-Feb-02 09:00N 47°58' E 017°25'3 6.4
2018-Feb-02 08:30N 47°56' E 017°28'3 6.7
2018-Feb-02 08:00N 47°53' E 017°32'0 1.0
2018-Feb-02 07:30N 47°53' E 017°32'2 3.9
2018-Feb-02 07:00N 47°51' E 017°34'3 5.7
2018-Feb-02 06:30N 47°49' E 017°37'2 4.2
2018-Feb-02 05:59N 47°48' E 017°39'2 4.0
2018-Feb-02 05:30N 47°46' E 017°41'57 3.6
2018-Feb-01 13:26N 47°35' E 019°04'2 5.2
2018-Feb-01 13:01N 47°33' E 019°04'2 4.9
2018-Feb-01 12:30N 47°30' E 019°03'2 4.7
2018-Feb-01 12:00N 47°28' E 019°04'4 4.2
2018-Feb-01 10:58N 47°24' E 019°02'2 4.6
2018-Feb-01 10:30N 47°23' E 018°60'3 4.9
2018-Feb-01 09:59N 47°21' E 018°57'2 4.6
2018-Feb-01 09:30N 47°19' E 018°56'3 4.7
2018-Feb-01 08:56N 47°17' E 018°55'81 3.8
2018-Jan-31 11:33N 45°56' E 018°47'2 5.5
2018-Jan-31 11:10N 45°54' E 018°49'1 5.2
2018-Jan-31 10:56N 45°53' E 018°50'2 4.8
2018-Jan-31 10:29N 45°51' E 018°51'1 1.0
2018-Jan-31 10:00N 45°51' E 018°52'0 0.0
2018-Jan-31 09:30N 45°51' E 018°52'1 2.6
2018-Jan-31 09:00N 45°50' E 018°51'3 5.0
2018-Jan-31 08:31N 45°47' E 018°52'2 4.8
2018-Jan-31 08:00N 45°45' E 018°54'3 5.5
2018-Jan-31 07:30N 45°42' E 018°54'3 5.4
2018-Jan-31 07:01N 45°41' E 018°57'2 4.2
2018-Jan-31 06:31N 45°39' E 018°56'2 4.9
2018-Jan-31 06:00N 45°37' E 018°54'2 4.6
2018-Jan-31 05:30N 45°34' E 018°53'2 4.8
2018-Jan-31 05:00N 45°33' E 018°56'2 4.7
2018-Jan-31 04:31N 45°32' E 018°59'2 3.9
2018-Jan-31 04:01N 45°33' E 019°02'2 4.8
2018-Jan-31 03:31N 45°32' E 019°05'2 4.4
2018-Jan-31 03:00N 45°30' E 019°06'3 5.1
2018-Jan-31 02:31N 45°29' E 019°02'2 3.8
2018-Jan-31 02:01N 45°29' E 018°59'3 5.0
2018-Jan-31 01:31N 45°26' E 018°60'2 4.6
2018-Jan-31 01:00N 45°25' E 019°02'3 3.4
2018-Jan-31 00:00N 45°22' E 019°00'2 5.0
2018-Jan-30 23:31N 45°21' E 019°03'2 4.6
2018-Jan-30 23:01N 45°19' E 019°06'2 4.5
2018-Jan-30 22:30N 45°17' E 019°07'5 5.1
2018-Jan-30 21:30N 45°15' E 019°14'2 4.8
2018-Jan-30 21:00N 45°14' E 019°17'3 5.2
2018-Jan-30 20:30N 45°14' E 019°21'2 4.9
2018-Jan-30 20:01N 45°14' E 019°24'6 4.8
2018-Jan-30 18:42N 45°15' E 019°33'2 5.2
2018-Jan-30 18:24N 45°13' E 019°34'3 4.3
2018-Jan-30 17:42N 45°13' E 019°38'1 5.2
2018-Jan-30 17:26N 45°13' E 019°40'2 5.0
2018-Jan-30 17:00N 45°14' E 019°43'5 5.4
2018-Jan-30 16:04N 45°14' E 019°50'0 2.1
2018-Jan-30 15:59N 45°14' E 019°51'2 2.9
2018-Jan-30 15:15N 45°16' E 019°52'1 0.7
2018-Jan-30 14:32N 45°16' E 019°51'0 0.1
2018-Jan-30 14:29N 45°16' E 019°51'0 0.0
2018-Jan-30 13:30N 45°16' E 019°51'0 0.2
2018-Jan-30 12:57N 45°16' E 019°51'0 0.0
2018-Jan-30 12:30N 45°16' E 019°51'0 0.0
2018-Jan-30 11:54N 45°16' E 019°51'0 0.0
2018-Jan-30 11:24N 45°16' E 019°51'1 0.8
2018-Jan-30 10:29N 45°16' E 019°51'0 0.0
2018-Jan-30 09:30N 45°16' E 019°51'0 0.0
2018-Jan-30 08:55N 45°16' E 019°51'0 0.0
2018-Jan-30 08:19N 45°16' E 019°51'0 0.0
2018-Jan-30 07:30N 45°16' E 019°51'0 0.0
2018-Jan-30 07:00N 45°16' E 019°51'3 3.6
2018-Jan-30 06:18N 45°15' E 019°55'2 5.2
2018-Jan-30 06:00N 45°13' E 019°56'3 5.2
2018-Jan-30 05:30N 45°11' E 019°58'3 5.1
2018-Jan-30 05:01N 45°10' E 020°01'3 4.8
2018-Jan-30 04:29N 45°10' E 020°05'2 4.9
2018-Jan-30 04:00N 45°10' E 020°08'2 5.0
2018-Jan-30 03:30N 45°11' E 020°12'3 5.0
2018-Jan-30 03:00N 45°09' E 020°15'3 5.1
2018-Jan-30 02:30N 45°07' E 020°17'3 5.3
2018-Jan-30 02:00N 45°05' E 020°19'3 5.2
2018-Jan-30 01:30N 45°03' E 020°21'3 5.2
2018-Jan-30 01:00N 45°01' E 020°22'3 5.0
2018-Jan-30 00:30N 44°60' E 020°18'3 5.2
2018-Jan-30 00:00N 44°57' E 020°18'3 5.1
2018-Jan-29 23:30N 44°55' E 020°20'3 5.4
2018-Jan-29 23:00N 44°53' E 020°22'2 5.0
2018-Jan-29 22:31N 44°51' E 020°25'3 5.7
2018-Jan-29 22:00N 44°50' E 020°28'3 5.4
2018-Jan-29 21:30N 44°50' E 020°32'3 5.6
2018-Jan-29 21:00N 44°51' E 020°35'2 4.9
2018-Jan-29 20:30N 44°50' E 020°39'3 5.3
2018-Jan-29 20:00N 44°47' E 020°38'3 5.4
2018-Jan-29 19:30N 44°45' E 020°39'3 5.5
2018-Jan-29 19:00N 44°43' E 020°41'3 5.5
2018-Jan-29 18:30N 44°41' E 020°44'3 5.5
2018-Jan-29 18:00N 44°39' E 020°47'3 5.4
2018-Jan-29 17:30N 44°40' E 020°51'3 5.7
2018-Jan-29 17:00N 44°40' E 020°55'3 5.7
2018-Jan-29 16:30N 44°42' E 020°58'3 5.4
2018-Jan-29 16:00N 44°43' E 021°02'3 5.6
2018-Jan-29 15:30N 44°43' E 021°06'3 5.7
2018-Jan-29 15:00N 44°45' E 021°09'3 5.4
2018-Jan-29 14:30N 44°46' E 021°12'8 4.7
2018-Jan-29 12:43N 44°47' E 021°24'1 5.7
2018-Jan-29 12:28N 44°46' E 021°26'3 5.6
2018-Jan-29 12:00N 44°46' E 021°30'1 1.6
2018-Jan-29 11:20N 44°46' E 021°31'0 0.0
2018-Jan-29 09:37N 44°46' E 021°31'0 0.2
2018-Jan-29 09:30N 44°46' E 021°31'2 4.3
2018-Jan-29 09:01N 44°46' E 021°34'3 5.5
2018-Jan-29 08:31N 44°44' E 021°37'3 5.2
2018-Jan-29 08:01N 44°42' E 021°39'3 5.6
2018-Jan-29 07:31N 44°40' E 021°42'13 5.3
2018-Jan-29 05:02N 44°38' E 021°60'0 5.9
2018-Jan-29 04:59N 44°37' E 022°00'3 5.5
2018-Jan-29 04:31N 44°35' E 022°02'3 5.8
2018-Jan-29 04:00N 44°32' E 022°03'3 5.8
2018-Jan-29 03:30N 44°30' E 022°05'3 6.1
2018-Jan-29 03:00N 44°28' E 022°09'3 5.5
2018-Jan-29 02:30N 44°30' E 022°12'  

Dump ship's entire track history